sensor_id;sensor_type;location;lat;lon;timestamp;P1;durP1;ratioP1;P2;durP2;ratioP2
55819;SDS011;41747;45.002;39.032;2022-08-19T00:00:18;17.12;;;12.85;;
55819;SDS011;41747;45.002;39.032;2022-08-19T00:02:48;20.65;;;12.85;;
55819;SDS011;41747;45.002;39.032;2022-08-19T00:05:17;19.65;;;12.95;;
55819;SDS011;41747;45.002;39.032;2022-08-19T00:07:47;25.35;;;12.37;;
55819;SDS011;41747;45.002;39.032;2022-08-19T00:10:18;20.70;;;13.58;;
55819;SDS011;41747;45.002;39.032;2022-08-19T00:12:47;22.22;;;13.58;;
55819;SDS011;41747;45.002;39.032;2022-08-19T00:15:18;23.10;;;13.15;;
55819;SDS011;41747;45.002;39.032;2022-08-19T00:17:49;24.40;;;13.95;;
55819;SDS011;41747;45.002;39.032;2022-08-19T00:20:19;18.98;;;13.28;;
55819;SDS011;41747;45.002;39.032;2022-08-19T00:22:49;20.43;;;13.00;;
55819;SDS011;41747;45.002;39.032;2022-08-19T00:25:19;19.30;;;12.43;;
55819;SDS011;41747;45.002;39.032;2022-08-19T00:27:48;27.82;;;12.80;;
55819;SDS011;41747;45.002;39.032;2022-08-19T00:30:17;21.95;;;13.65;;
55819;SDS011;41747;45.002;39.032;2022-08-19T00:32:47;22.15;;;12.82;;
55819;SDS011;41747;45.002;39.032;2022-08-19T00:35:16;23.62;;;13.80;;
55819;SDS011;41747;45.002;39.032;2022-08-19T00:37:46;21.35;;;13.85;;
55819;SDS011;41747;45.002;39.032;2022-08-19T00:40:17;18.60;;;14.13;;
55819;SDS011;41747;45.002;39.032;2022-08-19T00:42:47;18.48;;;13.13;;
55819;SDS011;41747;45.002;39.032;2022-08-19T00:45:19;18.37;;;13.22;;
55819;SDS011;41747;45.002;39.032;2022-08-19T00:47:50;21.15;;;13.48;;
55819;SDS011;41747;45.002;39.032;2022-08-19T00:50:20;21.50;;;14.15;;
55819;SDS011;41747;45.002;39.032;2022-08-19T00:52:50;19.92;;;14.53;;
55819;SDS011;41747;45.002;39.032;2022-08-19T00:55:21;18.98;;;14.25;;
55819;SDS011;41747;45.002;39.032;2022-08-19T00:58:00;23.25;;;14.33;;
55819;SDS011;41747;45.002;39.032;2022-08-19T01:00:34;20.57;;;14.75;;
55819;SDS011;41747;45.002;39.032;2022-08-19T01:03:08;23.52;;;15.03;;
55819;SDS011;41747;45.002;39.032;2022-08-19T01:08:09;22.32;;;14.35;;
55819;SDS011;41747;45.002;39.032;2022-08-19T01:10:43;20.80;;;15.18;;
55819;SDS011;41747;45.002;39.032;2022-08-19T01:13:15;24.40;;;14.73;;
55819;SDS011;41747;45.002;39.032;2022-08-19T01:15:47;22.22;;;15.30;;
55819;SDS011;41747;45.002;39.032;2022-08-19T01:18:20;26.80;;;15.77;;
55819;SDS011;41747;45.002;39.032;2022-08-19T01:20:50;24.30;;;16.57;;
55819;SDS011;41747;45.002;39.032;2022-08-19T01:23:21;23.02;;;15.38;;
55819;SDS011;41747;45.002;39.032;2022-08-19T01:25:52;22.25;;;17.07;;
55819;SDS011;41747;45.002;39.032;2022-08-19T01:28:24;26.73;;;16.87;;
55819;SDS011;41747;45.002;39.032;2022-08-19T01:30:55;29.63;;;16.75;;
55819;SDS011;41747;45.002;39.032;2022-08-19T01:33:24;21.57;;;15.98;;
55819;SDS011;41747;45.002;39.032;2022-08-19T01:35:54;21.37;;;16.52;;
55819;SDS011;41747;45.002;39.032;2022-08-19T01:38:26;24.75;;;16.10;;
55819;SDS011;41747;45.002;39.032;2022-08-19T01:40:57;26.85;;;16.45;;
55819;SDS011;41747;45.002;39.032;2022-08-19T01:43:27;22.17;;;16.73;;
55819;SDS011;41747;45.002;39.032;2022-08-19T01:45:56;28.15;;;17.00;;
55819;SDS011;41747;45.002;39.032;2022-08-19T01:48:26;24.27;;;17.50;;
55819;SDS011;41747;45.002;39.032;2022-08-19T01:50:58;25.35;;;17.25;;
55819;SDS011;41747;45.002;39.032;2022-08-19T01:53:27;29.00;;;18.15;;
55819;SDS011;41747;45.002;39.032;2022-08-19T01:55:57;27.17;;;17.95;;
55819;SDS011;41747;45.002;39.032;2022-08-19T01:58:29;25.30;;;17.70;;
55819;SDS011;41747;45.002;39.032;2022-08-19T02:01:04;26.07;;;18.35;;
55819;SDS011;41747;45.002;39.032;2022-08-19T02:03:34;25.88;;;18.17;;
55819;SDS011;41747;45.002;39.032;2022-08-19T02:06:03;25.05;;;18.05;;
55819;SDS011;41747;45.002;39.032;2022-08-19T02:08:35;27.87;;;18.67;;
55819;SDS011;41747;45.002;39.032;2022-08-19T02:11:05;26.45;;;18.70;;
55819;SDS011;41747;45.002;39.032;2022-08-19T02:13:36;24.18;;;18.07;;
55819;SDS011;41747;45.002;39.032;2022-08-19T02:16:05;24.23;;;18.48;;
55819;SDS011;41747;45.002;39.032;2022-08-19T02:18:35;26.17;;;18.67;;
55819;SDS011;41747;45.002;39.032;2022-08-19T02:21:04;25.05;;;17.62;;
55819;SDS011;41747;45.002;39.032;2022-08-19T02:23:34;24.40;;;18.87;;
55819;SDS011;41747;45.002;39.032;2022-08-19T02:26:04;28.52;;;20.37;;
55819;SDS011;41747;45.002;39.032;2022-08-19T02:28:34;25.00;;;17.15;;
55819;SDS011;41747;45.002;39.032;2022-08-19T02:31:08;23.18;;;13.95;;
55819;SDS011;41747;45.002;39.032;2022-08-19T02:33:39;17.77;;;10.98;;
55819;SDS011;41747;45.002;39.032;2022-08-19T02:36:09;18.55;;;12.00;;
55819;SDS011;41747;45.002;39.032;2022-08-19T02:38:40;21.02;;;11.03;;
55819;SDS011;41747;45.002;39.032;2022-08-19T02:41:18;18.42;;;10.15;;
55819;SDS011;41747;45.002;39.032;2022-08-19T02:43:48;15.50;;;9.90;;
55819;SDS011;41747;45.002;39.032;2022-08-19T02:46:19;16.93;;;9.85;;
55819;SDS011;41747;45.002;39.032;2022-08-19T02:48:55;18.57;;;9.78;;
55819;SDS011;41747;45.002;39.032;2022-08-19T02:51:34;15.63;;;8.85;;
55819;SDS011;41747;45.002;39.032;2022-08-19T02:54:00;15.78;;;8.48;;
55819;SDS011;41747;45.002;39.032;2022-08-19T02:56:30;14.70;;;8.90;;
55819;SDS011;41747;45.002;39.032;2022-08-19T02:59:01;16.90;;;10.13;;
55819;SDS011;41747;45.002;39.032;2022-08-19T03:01:33;13.88;;;8.95;;
55819;SDS011;41747;45.002;39.032;2022-08-19T03:04:04;14.65;;;8.75;;
55819;SDS011;41747;45.002;39.032;2022-08-19T03:06:36;15.23;;;8.30;;
55819;SDS011;41747;45.002;39.032;2022-08-19T03:09:05;13.83;;;8.53;;
55819;SDS011;41747;45.002;39.032;2022-08-19T03:11:34;14.35;;;8.35;;
55819;SDS011;41747;45.002;39.032;2022-08-19T03:14:05;15.68;;;8.25;;
55819;SDS011;41747;45.002;39.032;2022-08-19T03:16:43;19.02;;;8.45;;
55819;SDS011;41747;45.002;39.032;2022-08-19T03:19:15;14.35;;;8.18;;
55819;SDS011;41747;45.002;39.032;2022-08-19T03:21:45;13.65;;;7.78;;
55819;SDS011;41747;45.002;39.032;2022-08-19T03:24:15;10.93;;;7.95;;
55819;SDS011;41747;45.002;39.032;2022-08-19T03:26:47;12.45;;;7.95;;
55819;SDS011;41747;45.002;39.032;2022-08-19T03:29:18;12.55;;;7.90;;
55819;SDS011;41747;45.002;39.032;2022-08-19T03:31:48;12.58;;;7.87;;
55819;SDS011;41747;45.002;39.032;2022-08-19T03:34:20;12.07;;;7.97;;
55819;SDS011;41747;45.002;39.032;2022-08-19T03:36:53;13.85;;;8.40;;
55819;SDS011;41747;45.002;39.032;2022-08-19T03:39:24;10.82;;;8.20;;
55819;SDS011;41747;45.002;39.032;2022-08-19T03:41:54;14.65;;;7.70;;
55819;SDS011;41747;45.002;39.032;2022-08-19T03:44:25;13.28;;;8.70;;
55819;SDS011;41747;45.002;39.032;2022-08-19T03:46:55;17.30;;;7.80;;
55819;SDS011;41747;45.002;39.032;2022-08-19T03:49:27;10.05;;;7.20;;
55819;SDS011;41747;45.002;39.032;2022-08-19T03:51:58;12.98;;;7.67;;
55819;SDS011;41747;45.002;39.032;2022-08-19T03:54:28;12.30;;;7.78;;
55819;SDS011;41747;45.002;39.032;2022-08-19T03:56:57;12.00;;;6.83;;
55819;SDS011;41747;45.002;39.032;2022-08-19T03:59:28;11.18;;;7.17;;
55819;SDS011;41747;45.002;39.032;2022-08-19T04:02:03;12.00;;;6.35;;
55819;SDS011;41747;45.002;39.032;2022-08-19T04:04:36;9.95;;;6.17;;
55819;SDS011;41747;45.002;39.032;2022-08-19T04:09:41;13.35;;;5.97;;
55819;SDS011;41747;45.002;39.032;2022-08-19T04:12:10;15.50;;;6.95;;
55819;SDS011;41747;45.002;39.032;2022-08-19T04:14:40;10.50;;;6.17;;
55819;SDS011;41747;45.002;39.032;2022-08-19T04:17:09;11.40;;;6.55;;
55819;SDS011;41747;45.002;39.032;2022-08-19T04:19:40;7.90;;;5.92;;
55819;SDS011;41747;45.002;39.032;2022-08-19T04:22:10;8.75;;;5.95;;
55819;SDS011;41747;45.002;39.032;2022-08-19T04:24:39;9.25;;;5.28;;
55819;SDS011;41747;45.002;39.032;2022-08-19T04:27:09;8.70;;;5.05;;
55819;SDS011;41747;45.002;39.032;2022-08-19T04:29:38;8.95;;;4.97;;
55819;SDS011;41747;45.002;39.032;2022-08-19T04:32:08;10.50;;;5.87;;
55819;SDS011;41747;45.002;39.032;2022-08-19T04:34:37;8.73;;;5.58;;
55819;SDS011;41747;45.002;39.032;2022-08-19T04:37:07;9.95;;;4.53;;
55819;SDS011;41747;45.002;39.032;2022-08-19T04:39:38;7.15;;;4.92;;
55819;SDS011;41747;45.002;39.032;2022-08-19T04:42:25;8.15;;;4.92;;
55819;SDS011;41747;45.002;39.032;2022-08-19T04:45:08;7.67;;;5.08;;
55819;SDS011;41747;45.002;39.032;2022-08-19T04:47:41;8.68;;;4.85;;
55819;SDS011;41747;45.002;39.032;2022-08-19T04:50:11;7.50;;;4.55;;
55819;SDS011;41747;45.002;39.032;2022-08-19T04:52:42;8.65;;;5.40;;
55819;SDS011;41747;45.002;39.032;2022-08-19T04:55:12;6.42;;;4.55;;
55819;SDS011;41747;45.002;39.032;2022-08-19T04:57:41;10.38;;;5.25;;
55819;SDS011;41747;45.002;39.032;2022-08-19T05:00:11;9.30;;;5.80;;
55819;SDS011;41747;45.002;39.032;2022-08-19T05:02:41;7.62;;;5.08;;
55819;SDS011;41747;45.002;39.032;2022-08-19T05:05:10;7.95;;;5.17;;
55819;SDS011;41747;45.002;39.032;2022-08-19T05:07:39;12.75;;;5.05;;
55819;SDS011;41747;45.002;39.032;2022-08-19T05:10:09;7.00;;;4.80;;
55819;SDS011;41747;45.002;39.032;2022-08-19T05:12:39;8.20;;;5.15;;
55819;SDS011;41747;45.002;39.032;2022-08-19T05:15:09;7.95;;;4.83;;
55819;SDS011;41747;45.002;39.032;2022-08-19T05:17:39;8.50;;;5.35;;
55819;SDS011;41747;45.002;39.032;2022-08-19T05:20:11;11.05;;;5.37;;
55819;SDS011;41747;45.002;39.032;2022-08-19T05:22:59;6.87;;;4.80;;
55819;SDS011;41747;45.002;39.032;2022-08-19T05:25:28;8.93;;;4.97;;
55819;SDS011;41747;45.002;39.032;2022-08-19T05:27:58;6.92;;;4.60;;
55819;SDS011;41747;45.002;39.032;2022-08-19T05:30:27;8.35;;;4.78;;
55819;SDS011;41747;45.002;39.032;2022-08-19T05:32:57;8.78;;;4.72;;
55819;SDS011;41747;45.002;39.032;2022-08-19T05:35:26;9.03;;;4.87;;
55819;SDS011;41747;45.002;39.032;2022-08-19T05:37:56;6.95;;;4.72;;
55819;SDS011;41747;45.002;39.032;2022-08-19T05:40:25;6.60;;;4.30;;
55819;SDS011;41747;45.002;39.032;2022-08-19T05:42:55;7.42;;;4.20;;
55819;SDS011;41747;45.002;39.032;2022-08-19T05:45:25;9.00;;;4.67;;
55819;SDS011;41747;45.002;39.032;2022-08-19T05:47:55;8.75;;;4.58;;
55819;SDS011;41747;45.002;39.032;2022-08-19T05:50:25;7.53;;;4.50;;
55819;SDS011;41747;45.002;39.032;2022-08-19T05:52:54;6.22;;;4.30;;
55819;SDS011;41747;45.002;39.032;2022-08-19T05:55:24;7.03;;;4.05;;
55819;SDS011;41747;45.002;39.032;2022-08-19T05:57:53;10.00;;;4.35;;
55819;SDS011;41747;45.002;39.032;2022-08-19T06:00:23;7.08;;;4.37;;
55819;SDS011;41747;45.002;39.032;2022-08-19T06:02:52;7.10;;;4.35;;
55819;SDS011;41747;45.002;39.032;2022-08-19T06:05:23;7.55;;;4.20;;
55819;SDS011;41747;45.002;39.032;2022-08-19T06:07:53;7.10;;;4.17;;
55819;SDS011;41747;45.002;39.032;2022-08-19T06:10:22;6.35;;;4.05;;
55819;SDS011;41747;45.002;39.032;2022-08-19T06:12:52;9.25;;;4.05;;
55819;SDS011;41747;45.002;39.032;2022-08-19T06:15:23;7.72;;;3.80;;
55819;SDS011;41747;45.002;39.032;2022-08-19T06:17:54;7.00;;;4.10;;
55819;SDS011;41747;45.002;39.032;2022-08-19T06:20:24;12.90;;;4.60;;
55819;SDS011;41747;45.002;39.032;2022-08-19T06:22:53;9.78;;;4.20;;
55819;SDS011;41747;45.002;39.032;2022-08-19T06:25:22;11.75;;;4.60;;
55819;SDS011;41747;45.002;39.032;2022-08-19T06:27:52;10.95;;;5.03;;
55819;SDS011;41747;45.002;39.032;2022-08-19T06:30:21;16.20;;;5.20;;
55819;SDS011;41747;45.002;39.032;2022-08-19T06:32:51;9.40;;;4.60;;
55819;SDS011;41747;45.002;39.032;2022-08-19T06:35:20;9.83;;;4.35;;
55819;SDS011;41747;45.002;39.032;2022-08-19T06:37:50;10.85;;;4.58;;
55819;SDS011;41747;45.002;39.032;2022-08-19T06:40:19;7.45;;;4.00;;
55819;SDS011;41747;45.002;39.032;2022-08-19T06:42:49;7.90;;;4.12;;
55819;SDS011;41747;45.002;39.032;2022-08-19T06:45:19;7.22;;;4.05;;
55819;SDS011;41747;45.002;39.032;2022-08-19T06:47:49;9.73;;;4.65;;
55819;SDS011;41747;45.002;39.032;2022-08-19T06:50:22;8.43;;;4.03;;
55819;SDS011;41747;45.002;39.032;2022-08-19T06:52:52;8.90;;;4.30;;
55819;SDS011;41747;45.002;39.032;2022-08-19T06:55:21;6.53;;;4.30;;
55819;SDS011;41747;45.002;39.032;2022-08-19T06:57:51;9.93;;;4.03;;
55819;SDS011;41747;45.002;39.032;2022-08-19T07:00:20;10.10;;;4.00;;
55819;SDS011;41747;45.002;39.032;2022-08-19T07:02:52;11.53;;;4.20;;
55819;SDS011;41747;45.002;39.032;2022-08-19T07:05:22;11.80;;;4.30;;
55819;SDS011;41747;45.002;39.032;2022-08-19T07:07:51;10.43;;;4.20;;
55819;SDS011;41747;45.002;39.032;2022-08-19T07:10:21;17.27;;;4.28;;
55819;SDS011;41747;45.002;39.032;2022-08-19T07:12:50;8.63;;;4.10;;
55819;SDS011;41747;45.002;39.032;2022-08-19T07:15:20;11.28;;;3.90;;
55819;SDS011;41747;45.002;39.032;2022-08-19T07:17:50;9.08;;;3.85;;
55819;SDS011;41747;45.002;39.032;2022-08-19T07:20:20;10.05;;;4.10;;
55819;SDS011;41747;45.002;39.032;2022-08-19T07:22:49;8.75;;;4.03;;
55819;SDS011;41747;45.002;39.032;2022-08-19T07:25:18;11.00;;;3.85;;
55819;SDS011;41747;45.002;39.032;2022-08-19T07:27:49;10.20;;;4.20;;
55819;SDS011;41747;45.002;39.032;2022-08-19T07:30:18;13.45;;;4.40;;
55819;SDS011;41747;45.002;39.032;2022-08-19T07:32:49;7.47;;;3.75;;
55819;SDS011;41747;45.002;39.032;2022-08-19T07:35:19;7.03;;;3.77;;
55819;SDS011;41747;45.002;39.032;2022-08-19T07:37:49;9.50;;;3.90;;
55819;SDS011;41747;45.002;39.032;2022-08-19T07:40:20;10.90;;;3.83;;
55819;SDS011;41747;45.002;39.032;2022-08-19T07:42:49;5.65;;;3.75;;
55819;SDS011;41747;45.002;39.032;2022-08-19T07:45:19;10.08;;;4.30;;
55819;SDS011;41747;45.002;39.032;2022-08-19T07:47:52;8.38;;;4.45;;
55819;SDS011;41747;45.002;39.032;2022-08-19T07:50:22;7.50;;;4.10;;
55819;SDS011;41747;45.002;39.032;2022-08-19T07:52:51;8.20;;;4.22;;
55819;SDS011;41747;45.002;39.032;2022-08-19T07:55:22;7.10;;;3.67;;
55819;SDS011;41747;45.002;39.032;2022-08-19T07:57:52;7.47;;;3.70;;
55819;SDS011;41747;45.002;39.032;2022-08-19T08:00:22;8.05;;;3.85;;
55819;SDS011;41747;45.002;39.032;2022-08-19T08:02:52;7.37;;;3.77;;
55819;SDS011;41747;45.002;39.032;2022-08-19T08:05:22;9.15;;;3.87;;
55819;SDS011;41747;45.002;39.032;2022-08-19T08:08:10;10.48;;;4.03;;
55819;SDS011;41747;45.002;39.032;2022-08-19T08:10:58;10.63;;;4.25;;
55819;SDS011;41747;45.002;39.032;2022-08-19T08:13:28;10.88;;;4.50;;
55819;SDS011;41747;45.002;39.032;2022-08-19T08:15:57;11.10;;;4.67;;
55819;SDS011;41747;45.002;39.032;2022-08-19T08:18:27;10.15;;;4.15;;
55819;SDS011;41747;45.002;39.032;2022-08-19T08:20:56;6.83;;;4.03;;
55819;SDS011;41747;45.002;39.032;2022-08-19T08:23:26;11.15;;;4.78;;
55819;SDS011;41747;45.002;39.032;2022-08-19T08:25:57;8.38;;;4.00;;
55819;SDS011;41747;45.002;39.032;2022-08-19T08:28:27;7.05;;;4.20;;
55819;SDS011;41747;45.002;39.032;2022-08-19T08:30:59;10.93;;;4.70;;
55819;SDS011;41747;45.002;39.032;2022-08-19T08:33:30;10.58;;;5.80;;
55819;SDS011;41747;45.002;39.032;2022-08-19T08:36:00;9.60;;;5.03;;
55819;SDS011;41747;45.002;39.032;2022-08-19T08:38:32;11.22;;;5.40;;
55819;SDS011;41747;45.002;39.032;2022-08-19T08:41:05;8.23;;;5.33;;
55819;SDS011;41747;45.002;39.032;2022-08-19T08:43:35;10.15;;;4.78;;
55819;SDS011;41747;45.002;39.032;2022-08-19T08:46:34;11.65;;;4.90;;
55819;SDS011;41747;45.002;39.032;2022-08-19T08:51:18;7.75;;;4.25;;
55819;SDS011;41747;45.002;39.032;2022-08-19T08:53:52;7.65;;;4.95;;
55819;SDS011;41747;45.002;39.032;2022-08-19T08:56:22;9.53;;;4.72;;
55819;SDS011;41747;45.002;39.032;2022-08-19T09:01:39;9.23;;;4.65;;
55819;SDS011;41747;45.002;39.032;2022-08-19T09:04:09;7.45;;;4.50;;
55819;SDS011;41747;45.002;39.032;2022-08-19T09:09:27;9.45;;;5.25;;
55819;SDS011;41747;45.002;39.032;2022-08-19T09:15:07;10.20;;;4.20;;
55819;SDS011;41747;45.002;39.032;2022-08-19T09:17:38;8.68;;;4.20;;
55819;SDS011;41747;45.002;39.032;2022-08-19T09:22:42;6.85;;;3.37;;
55819;SDS011;41747;45.002;39.032;2022-08-19T09:25:13;7.83;;;3.35;;
55819;SDS011;41747;45.002;39.032;2022-08-19T09:27:44;12.73;;;3.20;;
55819;SDS011;41747;45.002;39.032;2022-08-19T09:30:16;7.67;;;3.12;;
55819;SDS011;41747;45.002;39.032;2022-08-19T09:32:46;9.45;;;3.85;;
55819;SDS011;41747;45.002;39.032;2022-08-19T09:35:16;7.45;;;3.42;;
55819;SDS011;41747;45.002;39.032;2022-08-19T09:37:45;9.20;;;3.50;;
55819;SDS011;41747;45.002;39.032;2022-08-19T09:40:15;9.83;;;3.80;;
55819;SDS011;41747;45.002;39.032;2022-08-19T09:42:46;10.70;;;3.90;;
55819;SDS011;41747;45.002;39.032;2022-08-19T09:45:17;8.18;;;3.60;;
55819;SDS011;41747;45.002;39.032;2022-08-19T09:47:49;6.70;;;3.72;;
55819;SDS011;41747;45.002;39.032;2022-08-19T09:50:22;8.15;;;3.80;;
55819;SDS011;41747;45.002;39.032;2022-08-19T09:52:52;7.60;;;3.40;;
55819;SDS011;41747;45.002;39.032;2022-08-19T09:55:21;6.65;;;3.30;;
55819;SDS011;41747;45.002;39.032;2022-08-19T09:57:53;7.75;;;3.20;;
55819;SDS011;41747;45.002;39.032;2022-08-19T10:00:21;7.85;;;3.60;;
55819;SDS011;41747;45.002;39.032;2022-08-19T10:02:51;7.40;;;3.60;;
55819;SDS011;41747;45.002;39.032;2022-08-19T10:05:20;8.73;;;3.92;;
55819;SDS011;41747;45.002;39.032;2022-08-19T10:08:08;7.50;;;3.50;;
55819;SDS011;41747;45.002;39.032;2022-08-19T10:10:39;7.97;;;3.60;;
55819;SDS011;41747;45.002;39.032;2022-08-19T10:13:12;6.50;;;3.80;;
55819;SDS011;41747;45.002;39.032;2022-08-19T10:15:43;10.32;;;4.00;;
55819;SDS011;41747;45.002;39.032;2022-08-19T10:18:13;10.70;;;4.70;;
55819;SDS011;41747;45.002;39.032;2022-08-19T10:20:45;7.25;;;4.75;;
55819;SDS011;41747;45.002;39.032;2022-08-19T10:23:16;8.83;;;5.00;;
55819;SDS011;41747;45.002;39.032;2022-08-19T10:25:45;12.07;;;5.33;;
55819;SDS011;41747;45.002;39.032;2022-08-19T10:28:15;9.00;;;4.70;;
55819;SDS011;41747;45.002;39.032;2022-08-19T10:30:45;10.13;;;4.95;;
55819;SDS011;41747;45.002;39.032;2022-08-19T10:33:14;11.68;;;4.60;;
55819;SDS011;41747;45.002;39.032;2022-08-19T10:35:44;11.68;;;4.72;;
55819;SDS011;41747;45.002;39.032;2022-08-19T10:38:13;7.47;;;4.35;;
55819;SDS011;41747;45.002;39.032;2022-08-19T10:40:43;8.80;;;4.10;;
55819;SDS011;41747;45.002;39.032;2022-08-19T10:43:12;9.43;;;4.17;;
55819;SDS011;41747;45.002;39.032;2022-08-19T10:45:42;11.60;;;4.62;;
55819;SDS011;41747;45.002;39.032;2022-08-19T10:48:11;12.28;;;4.70;;
55819;SDS011;41747;45.002;39.032;2022-08-19T10:50:41;9.78;;;4.67;;
55819;SDS011;41747;45.002;39.032;2022-08-19T10:53:28;12.18;;;4.62;;
55819;SDS011;41747;45.002;39.032;2022-08-19T10:55:57;9.50;;;4.80;;
55819;SDS011;41747;45.002;39.032;2022-08-19T10:58:44;13.28;;;4.30;;
55819;SDS011;41747;45.002;39.032;2022-08-19T11:01:15;10.38;;;4.03;;
55819;SDS011;41747;45.002;39.032;2022-08-19T11:03:44;9.75;;;4.15;;
55819;SDS011;41747;45.002;39.032;2022-08-19T11:06:14;12.93;;;4.50;;
55819;SDS011;41747;45.002;39.032;2022-08-19T11:08:43;12.20;;;4.60;;
55819;SDS011;41747;45.002;39.032;2022-08-19T11:11:33;13.35;;;4.22;;
55819;SDS011;41747;45.002;39.032;2022-08-19T11:14:05;11.10;;;3.75;;
55819;SDS011;41747;45.002;39.032;2022-08-19T11:16:35;11.90;;;4.47;;
55819;SDS011;41747;45.002;39.032;2022-08-19T11:19:06;15.53;;;3.55;;
55819;SDS011;41747;45.002;39.032;2022-08-19T11:21:41;9.20;;;3.65;;
55819;SDS011;41747;45.002;39.032;2022-08-19T11:24:13;11.03;;;3.87;;
55819;SDS011;41747;45.002;39.032;2022-08-19T11:26:44;14.07;;;4.12;;
55819;SDS011;41747;45.002;39.032;2022-08-19T11:29:16;14.45;;;4.00;;
55819;SDS011;41747;45.002;39.032;2022-08-19T11:31:48;9.33;;;3.92;;
55819;SDS011;41747;45.002;39.032;2022-08-19T11:34:19;8.38;;;3.42;;
55819;SDS011;41747;45.002;39.032;2022-08-19T11:36:50;10.85;;;4.10;;
55819;SDS011;41747;45.002;39.032;2022-08-19T11:39:21;11.03;;;4.22;;
55819;SDS011;41747;45.002;39.032;2022-08-19T11:41:51;9.85;;;4.15;;
55819;SDS011;41747;45.002;39.032;2022-08-19T11:44:20;9.55;;;3.58;;
55819;SDS011;41747;45.002;39.032;2022-08-19T11:46:50;10.63;;;4.08;;
55819;SDS011;41747;45.002;39.032;2022-08-19T11:49:20;11.33;;;3.85;;
55819;SDS011;41747;45.002;39.032;2022-08-19T11:51:49;14.75;;;4.33;;
55819;SDS011;41747;45.002;39.032;2022-08-19T11:54:20;12.00;;;3.75;;
55819;SDS011;41747;45.002;39.032;2022-08-19T11:56:49;12.43;;;4.12;;
55819;SDS011;41747;45.002;39.032;2022-08-19T11:59:19;10.25;;;4.03;;
55819;SDS011;41747;45.002;39.032;2022-08-19T12:01:48;13.38;;;4.42;;
55819;SDS011;41747;45.002;39.032;2022-08-19T12:04:18;11.60;;;4.40;;
55819;SDS011;41747;45.002;39.032;2022-08-19T12:06:49;10.72;;;3.62;;
55819;SDS011;41747;45.002;39.032;2022-08-19T12:09:19;11.50;;;4.25;;
55819;SDS011;41747;45.002;39.032;2022-08-19T12:11:49;11.75;;;4.30;;
55819;SDS011;41747;45.002;39.032;2022-08-19T12:14:18;10.28;;;4.22;;
55819;SDS011;41747;45.002;39.032;2022-08-19T12:16:48;9.98;;;4.10;;
55819;SDS011;41747;45.002;39.032;2022-08-19T12:19:17;13.55;;;3.92;;
55819;SDS011;41747;45.002;39.032;2022-08-19T12:21:46;10.95;;;4.03;;
55819;SDS011;41747;45.002;39.032;2022-08-19T12:24:16;10.65;;;4.47;;
55819;SDS011;41747;45.002;39.032;2022-08-19T12:26:48;10.85;;;4.20;;
55819;SDS011;41747;45.002;39.032;2022-08-19T12:29:18;10.23;;;3.98;;
55819;SDS011;41747;45.002;39.032;2022-08-19T12:31:48;10.93;;;4.15;;
55819;SDS011;41747;45.002;39.032;2022-08-19T12:34:18;10.43;;;4.20;;
55819;SDS011;41747;45.002;39.032;2022-08-19T12:36:47;10.93;;;4.03;;
55819;SDS011;41747;45.002;39.032;2022-08-19T12:39:16;11.40;;;4.17;;
55819;SDS011;41747;45.002;39.032;2022-08-19T12:41:46;8.00;;;3.90;;
55819;SDS011;41747;45.002;39.032;2022-08-19T12:44:16;9.83;;;4.33;;
55819;SDS011;41747;45.002;39.032;2022-08-19T12:46:46;11.38;;;4.35;;
55819;SDS011;41747;45.002;39.032;2022-08-19T12:49:19;16.45;;;4.20;;
55819;SDS011;41747;45.002;39.032;2022-08-19T12:51:49;9.98;;;4.00;;
55819;SDS011;41747;45.002;39.032;2022-08-19T12:54:19;11.03;;;4.00;;
55819;SDS011;41747;45.002;39.032;2022-08-19T12:56:48;12.55;;;4.45;;
55819;SDS011;41747;45.002;39.032;2022-08-19T12:59:18;14.70;;;4.28;;
55819;SDS011;41747;45.002;39.032;2022-08-19T13:01:47;10.23;;;3.92;;
55819;SDS011;41747;45.002;39.032;2022-08-19T13:04:17;13.70;;;4.67;;
55819;SDS011;41747;45.002;39.032;2022-08-19T13:06:47;12.20;;;4.25;;
55819;SDS011;41747;45.002;39.032;2022-08-19T13:09:16;13.53;;;4.70;;
55819;SDS011;41747;45.002;39.032;2022-08-19T13:11:46;11.90;;;3.95;;
55819;SDS011;41747;45.002;39.032;2022-08-19T13:14:15;12.05;;;4.12;;
55819;SDS011;41747;45.002;39.032;2022-08-19T13:16:48;17.73;;;4.47;;
55819;SDS011;41747;45.002;39.032;2022-08-19T13:19:18;15.18;;;4.05;;
55819;SDS011;41747;45.002;39.032;2022-08-19T13:21:49;12.85;;;4.10;;
55819;SDS011;41747;45.002;39.032;2022-08-19T13:24:19;15.83;;;4.80;;
55819;SDS011;41747;45.002;39.032;2022-08-19T13:26:48;17.95;;;4.55;;
55819;SDS011;41747;45.002;39.032;2022-08-19T13:29:18;13.65;;;4.25;;
55819;SDS011;41747;45.002;39.032;2022-08-19T13:35:15;12.58;;;4.25;;
55819;SDS011;41747;45.002;39.032;2022-08-19T13:37:45;17.45;;;4.12;;
55819;SDS011;41747;45.002;39.032;2022-08-19T13:40:15;16.95;;;4.78;;
55819;SDS011;41747;45.002;39.032;2022-08-19T13:42:48;17.67;;;4.90;;
55819;SDS011;41747;45.002;39.032;2022-08-19T13:45:21;18.73;;;5.33;;
55819;SDS011;41747;45.002;39.032;2022-08-19T13:47:54;16.23;;;4.70;;
55819;SDS011;41747;45.002;39.032;2022-08-19T13:50:24;12.73;;;4.67;;
55819;SDS011;41747;45.002;39.032;2022-08-19T13:52:56;10.35;;;4.17;;
55819;SDS011;41747;45.002;39.032;2022-08-19T13:55:26;15.32;;;4.50;;
55819;SDS011;41747;45.002;39.032;2022-08-19T13:57:59;13.83;;;4.92;;
55819;SDS011;41747;45.002;39.032;2022-08-19T14:00:30;11.97;;;4.20;;
55819;SDS011;41747;45.002;39.032;2022-08-19T14:03:01;11.00;;;4.30;;
55819;SDS011;41747;45.002;39.032;2022-08-19T14:05:31;10.10;;;4.33;;
55819;SDS011;41747;45.002;39.032;2022-08-19T14:08:01;9.90;;;4.30;;
55819;SDS011;41747;45.002;39.032;2022-08-19T14:10:31;12.25;;;4.28;;
55819;SDS011;41747;45.002;39.032;2022-08-19T14:13:02;15.05;;;4.03;;
55819;SDS011;41747;45.002;39.032;2022-08-19T14:15:31;11.78;;;4.05;;
55819;SDS011;41747;45.002;39.032;2022-08-19T14:18:01;10.08;;;4.33;;
55819;SDS011;41747;45.002;39.032;2022-08-19T14:20:32;10.23;;;4.00;;
55819;SDS011;41747;45.002;39.032;2022-08-19T14:23:04;12.60;;;4.30;;
55819;SDS011;41747;45.002;39.032;2022-08-19T14:25:33;11.93;;;3.92;;
55819;SDS011;41747;45.002;39.032;2022-08-19T14:28:03;13.78;;;3.87;;
55819;SDS011;41747;45.002;39.032;2022-08-19T14:30:34;10.85;;;4.55;;
55819;SDS011;41747;45.002;39.032;2022-08-19T14:33:05;11.20;;;4.35;;
55819;SDS011;41747;45.002;39.032;2022-08-19T14:35:36;11.12;;;4.35;;
55819;SDS011;41747;45.002;39.032;2022-08-19T14:38:05;13.32;;;4.42;;
55819;SDS011;41747;45.002;39.032;2022-08-19T14:40:36;13.65;;;4.75;;
55819;SDS011;41747;45.002;39.032;2022-08-19T14:43:09;15.08;;;4.85;;
55819;SDS011;41747;45.002;39.032;2022-08-19T14:45:39;14.83;;;4.85;;
55819;SDS011;41747;45.002;39.032;2022-08-19T14:48:08;11.93;;;4.50;;
55819;SDS011;41747;45.002;39.032;2022-08-19T14:50:38;15.03;;;4.78;;
55819;SDS011;41747;45.002;39.032;2022-08-19T14:53:07;12.53;;;4.80;;
55819;SDS011;41747;45.002;39.032;2022-08-19T14:55:39;9.90;;;4.60;;
55819;SDS011;41747;45.002;39.032;2022-08-19T14:58:11;11.93;;;4.40;;
55819;SDS011;41747;45.002;39.032;2022-08-19T15:00:42;11.00;;;4.50;;
55819;SDS011;41747;45.002;39.032;2022-08-19T15:03:11;17.70;;;4.58;;
55819;SDS011;41747;45.002;39.032;2022-08-19T15:05:41;15.55;;;4.60;;